createdAt,value
2023-04-18T00:01:00.516Z,12.98
2023-04-18T00:03:33.959Z,13.05
2023-04-18T00:06:15.674Z,12.98
2023-04-18T00:08:54.621Z,13.07
2023-04-18T00:11:31.617Z,13.07
2023-04-18T00:14:12.378Z,13.11
2023-04-18T00:16:58.579Z,13.10
2023-04-18T00:19:37.074Z,13.11
2023-04-18T00:22:17.638Z,13.13
2023-04-18T00:24:58.937Z,13.13
2023-04-18T00:27:37.198Z,13.15
2023-04-18T00:30:15.295Z,13.13
2023-04-18T00:32:54.652Z,13.13
2023-04-18T00:35:38.352Z,13.08
2023-04-18T00:38:17.567Z,13.04
2023-04-18T00:41:06.235Z,12.93
2023-04-18T00:43:38.248Z,13.08
2023-04-18T00:46:17.139Z,13.06
2023-04-18T00:48:57.003Z,13.10
2023-04-18T00:51:40.294Z,13.12
2023-04-18T00:54:44.691Z,13.14
2023-04-18T00:57:23.027Z,13.15
2023-04-18T00:59:59.173Z,13.13
2023-04-18T01:02:50.153Z,13.15
2023-04-18T01:05:32.987Z,13.17
2023-04-18T01:08:07.421Z,13.17
2023-04-18T01:10:41.990Z,13.14
2023-04-18T01:13:29.332Z,13.08
2023-04-18T01:16:04.652Z,13.11
2023-04-18T01:18:40.803Z,13.09
2023-04-18T01:21:23.372Z,13.01
2023-04-18T01:24:09.297Z,13.06
2023-04-18T01:26:52.440Z,13.03
2023-04-18T01:29:28.547Z,13.02
2023-04-18T01:32:13.410Z,13.00
2023-04-18T01:34:47.587Z,13.01
2023-04-18T01:37:24.185Z,12.99
2023-04-18T01:40:01.996Z,13.03
2023-04-18T01:42:41.188Z,12.99
2023-04-18T01:45:20.209Z,12.94
2023-04-18T01:47:56.531Z,12.84
2023-04-18T01:50:33.313Z,12.96
2023-04-18T01:53:16.402Z,13.00
2023-04-18T01:55:54.030Z,13.01
2023-04-18T01:58:32.248Z,12.96
2023-04-18T02:01:08.586Z,12.95
2023-04-18T02:03:51.141Z,12.91
2023-04-18T02:06:29.160Z,12.87
2023-04-18T02:09:03.036Z,12.79
2023-04-18T02:11:37.060Z,12.84
2023-04-18T02:14:15.212Z,12.84
2023-04-18T02:16:53.739Z,12.88
2023-04-18T02:19:36.196Z,12.81
2023-04-18T02:22:12.303Z,12.77
2023-04-18T02:24:54.942Z,12.86
2023-04-18T02:27:27.377Z,12.85
2023-04-18T02:30:12.328Z,12.68
2023-04-18T02:32:47.472Z,12.81
2023-04-18T02:35:23.207Z,12.80
2023-04-18T02:38:08.845Z,12.84
2023-04-18T02:40:51.772Z,12.82
2023-04-18T02:43:35.419Z,12.79
2023-04-18T02:46:16.472Z,12.80
2023-04-18T02:48:54.174Z,12.79
2023-04-18T02:51:32.146Z,12.78
2023-04-18T02:54:12.367Z,12.77
2023-04-18T02:57:03.741Z,12.70
2023-04-18T03:00:01.794Z,12.68
2023-04-18T03:03:08.846Z,12.69
2023-04-18T03:06:13.935Z,12.62
2023-04-18T03:08:54.170Z,12.57
2023-04-18T03:11:49.402Z,12.49
2023-04-18T03:14:31.153Z,12.48
2023-04-18T03:17:10.523Z,12.49
2023-04-18T03:19:58.182Z,12.26
2023-04-18T03:22:37.288Z,12.43
2023-04-18T03:25:19.222Z,12.41
2023-04-18T03:28:13.415Z,12.32
2023-04-18T03:30:52.135Z,12.34
2023-04-18T03:33:24.793Z,12.32
2023-04-18T03:36:13.418Z,12.29
2023-04-18T03:38:44.922Z,12.30
2023-04-18T03:41:18.268Z,12.26
2023-04-18T03:43:51.356Z,12.25
2023-04-18T03:46:27.139Z,12.28
2023-04-18T03:49:06.783Z,12.27
2023-04-18T03:51:48.957Z,12.11
2023-04-18T03:54:26.804Z,12.22
2023-04-18T03:57:06.744Z,12.25
2023-04-18T03:59:52.620Z,12.23
2023-04-18T04:02:26.769Z,12.27
2023-04-18T04:05:05.857Z,12.32
2023-04-18T04:07:41.116Z,12.31
2023-04-18T04:10:17.285Z,12.34
2023-04-18T04:12:54.791Z,12.35
2023-04-18T04:15:32.465Z,12.16
2023-04-18T04:18:13.869Z,12.22
2023-04-18T04:20:56.257Z,12.25
2023-04-18T04:23:43.810Z,12.20
2023-04-18T04:26:31.298Z,12.21
2023-04-18T04:29:16.465Z,12.23
2023-04-18T04:31:50.358Z,12.21
2023-04-18T04:34:44.467Z,12.25
2023-04-18T04:37:19.890Z,12.22
2023-04-18T04:40:17.099Z,12.12
2023-04-18T04:43:15.793Z,12.02
2023-04-18T04:46:16.492Z,12.11
2023-04-18T04:48:57.390Z,12.20
2023-04-18T04:51:39.654Z,12.24
2023-04-18T04:54:14.954Z,12.26
2023-04-18T04:56:53.306Z,12.10
2023-04-18T04:59:27.904Z,12.28
2023-04-18T05:02:03.984Z,12.22
2023-04-18T05:04:40.620Z,12.31
2023-04-18T05:07:19.299Z,12.34
2023-04-18T05:09:56.339Z,12.33
2023-04-18T05:12:42.432Z,12.37
2023-04-18T05:15:21.732Z,12.38
2023-04-18T05:17:58.437Z,12.39
2023-04-18T05:20:32.502Z,12.44
2023-04-18T05:23:07.204Z,12.44
2023-04-18T05:25:50.101Z,12.47
2023-04-18T05:28:28.900Z,12.48
2023-04-18T05:31:04.462Z,12.54
2023-04-18T05:33:45.887Z,12.60
2023-04-18T05:36:18.930Z,12.57
2023-04-18T05:39:02.765Z,12.57
2023-04-18T05:41:37.431Z,12.57
2023-04-18T05:44:16.316Z,12.52
2023-04-18T05:46:54.745Z,12.60
2023-04-18T05:49:28.275Z,12.56
2023-04-18T05:52:03.539Z,12.59
2023-04-18T05:54:48.508Z,12.66
2023-04-18T05:57:26.073Z,12.70
2023-04-18T06:00:15.970Z,12.68
2023-04-18T06:02:50.892Z,12.59
2023-04-18T06:05:30.869Z,12.79
2023-04-18T06:08:08.663Z,12.87
2023-04-18T06:10:41.634Z,12.93
2023-04-18T06:13:21.477Z,13.08
2023-04-18T06:15:58.499Z,13.03
2023-04-18T06:18:39.097Z,13.17
2023-04-18T06:21:11.810Z,13.12
2023-04-18T06:23:52.439Z,13.32
2023-04-18T06:26:29.549Z,13.34
2023-04-18T06:29:05.823Z,13.27
2023-04-18T06:31:52.278Z,13.38
2023-04-18T06:34:39.007Z,13.36
2023-04-18T06:37:11.586Z,13.36
2023-04-18T06:39:43.333Z,13.33
2023-04-18T06:42:22.021Z,13.36
2023-04-18T06:45:00.880Z,13.40
2023-04-18T06:47:35.046Z,13.42
2023-04-18T06:50:08.068Z,13.48
2023-04-18T06:52:47.891Z,13.49
2023-04-18T06:55:24.181Z,13.49
2023-04-18T06:57:57.340Z,13.51
2023-04-18T07:00:29.363Z,13.45
2023-04-18T07:03:11.282Z,13.46
2023-04-18T07:05:43.769Z,13.51
2023-04-18T07:08:21.513Z,13.56
2023-04-18T07:10:57.364Z,13.60
2023-04-18T07:13:37.325Z,13.69
2023-04-18T07:16:09.131Z,13.67
2023-04-18T07:18:44.484Z,13.71
2023-04-18T07:21:17.319Z,13.76
2023-04-18T07:23:55.375Z,13.82
2023-04-18T07:26:37.505Z,13.86
2023-04-18T07:29:15.994Z,13.80
2023-04-18T07:31:50.825Z,14.03
2023-04-18T07:34:30.123Z,14.13
2023-04-18T07:37:08.076Z,14.19
2023-04-18T07:39:42.132Z,14.25
2023-04-18T07:42:19.191Z,14.36
2023-04-18T07:44:59.589Z,14.42
2023-04-18T07:47:36.930Z,14.37
2023-04-18T07:50:20.657Z,14.48
2023-04-18T07:52:57.692Z,14.56
2023-04-18T07:55:33.462Z,14.50
2023-04-18T07:58:10.741Z,14.46
2023-04-18T08:00:46.369Z,14.62
2023-04-18T08:03:42.961Z,14.66
2023-04-18T08:06:25.281Z,14.63
2023-04-18T08:09:09.470Z,14.70
2023-04-18T08:11:44.300Z,14.78
2023-04-18T08:14:22.543Z,14.78
2023-04-18T08:16:58.525Z,14.87
2023-04-18T08:19:31.559Z,14.99
2023-04-18T08:22:22.988Z,14.97
2023-04-18T08:25:04.306Z,15.17
2023-04-18T08:27:35.667Z,15.19
2023-04-18T08:30:15.846Z,15.21
2023-04-18T08:32:54.611Z,15.19
2023-04-18T08:35:39.542Z,14.97
2023-04-18T08:38:22.800Z,15.20
2023-04-18T08:41:01.364Z,15.25
2023-04-18T08:43:35.743Z,15.25
2023-04-18T08:46:11.014Z,15.25
2023-04-18T08:48:50.160Z,15.28
2023-04-18T08:51:29.393Z,15.38
2023-04-18T08:54:07.556Z,15.54
2023-04-18T08:56:46.339Z,15.59
2023-04-18T08:59:21.955Z,15.62
2023-04-18T09:02:04.650Z,15.59
2023-04-18T09:04:43.456Z,15.70
2023-04-18T09:07:20.266Z,15.71
2023-04-18T09:10:02.077Z,15.70
2023-04-18T09:12:40.419Z,15.74
2023-04-18T09:15:23.682Z,15.65
2023-04-18T09:18:05.276Z,15.78
2023-04-18T09:20:49.805Z,15.85
2023-04-18T09:23:32.119Z,15.97
2023-04-18T09:26:12.074Z,16.21
2023-04-18T09:29:01.804Z,16.36
2023-04-18T09:31:36.024Z,16.59
2023-04-18T09:34:15.964Z,16.59
2023-04-18T09:37:11.659Z,16.66
2023-04-18T09:39:50.194Z,16.79
2023-04-18T09:42:29.657Z,16.81
2023-04-18T09:45:19.930Z,16.82
2023-04-18T09:48:00.667Z,16.85
2023-04-18T09:50:37.402Z,16.94
2023-04-18T09:53:15.188Z,16.89
2023-04-18T09:55:52.545Z,16.95
2023-04-18T09:58:33.257Z,16.96
2023-04-18T10:01:05.417Z,16.96
2023-04-18T10:03:47.507Z,16.88
2023-04-18T10:06:25.591Z,16.81
2023-04-18T10:09:02.832Z,16.80
2023-04-18T10:11:43.924Z,16.96
2023-04-18T10:14:19.369Z,16.97
2023-04-18T10:16:53.503Z,17.09
2023-04-18T10:19:33.114Z,17.13
2023-04-18T10:22:12.417Z,17.14
2023-04-18T10:24:53.907Z,17.13
2023-04-18T10:27:54.102Z,16.98
2023-04-18T10:31:00.646Z,16.90
2023-04-18T10:33:42.516Z,16.96
2023-04-18T10:36:22.893Z,16.85
2023-04-18T10:38:59.994Z,17.10
2023-04-18T10:41:41.058Z,17.14
2023-04-18T10:44:28.830Z,17.09
2023-04-18T10:47:32.456Z,17.15
2023-04-18T10:50:19.601Z,17.25
2023-04-18T10:52:56.903Z,17.22
2023-04-18T10:55:34.303Z,17.27
2023-04-18T10:58:08.658Z,17.37
2023-04-18T11:00:49.014Z,17.37
2023-04-18T11:03:37.356Z,17.47
2023-04-18T11:06:14.062Z,17.56
2023-04-18T11:08:52.155Z,17.52
2023-04-18T11:11:31.786Z,17.53
2023-04-18T11:14:08.686Z,17.54
2023-04-18T11:16:48.266Z,17.51
2023-04-18T11:19:31.286Z,17.49
2023-04-18T11:22:06.352Z,17.56
2023-04-18T11:24:43.204Z,17.66
2023-04-18T11:27:22.912Z,17.71
2023-04-18T11:30:02.928Z,17.80
2023-04-18T11:32:43.922Z,17.81
2023-04-18T11:35:29.331Z,17.90
2023-04-18T11:38:11.435Z,18.00
2023-04-18T11:40:52.167Z,17.92
2023-04-18T11:43:32.937Z,17.89
2023-04-18T11:46:10.119Z,17.83
2023-04-18T11:48:46.483Z,17.76
2023-04-18T11:51:49.441Z,17.77
2023-04-18T11:54:52.830Z,17.91
2023-04-18T11:57:32.265Z,17.91
2023-04-18T12:00:08.130Z,18.04
2023-04-18T12:02:53.348Z,18.16
2023-04-18T12:05:33.955Z,18.08
2023-04-18T12:08:20.149Z,18.17
2023-04-18T12:10:55.809Z,18.53
2023-04-18T12:13:40.972Z,18.63
2023-04-18T12:16:17.994Z,18.70
2023-04-18T12:18:52.737Z,18.82
2023-04-18T12:21:31.434Z,18.81
2023-04-18T12:24:15.922Z,18.87
2023-04-18T12:27:00.612Z,18.85
2023-04-18T12:29:40.302Z,18.82
2023-04-18T12:32:17.722Z,18.75
2023-04-18T12:34:59.326Z,18.62
2023-04-18T12:37:39.400Z,18.57
2023-04-18T12:40:19.323Z,18.46
2023-04-18T12:42:57.024Z,18.44
2023-04-18T12:45:37.440Z,18.51
2023-04-18T12:48:20.453Z,18.33
2023-04-18T12:51:10.831Z,18.37
2023-04-18T12:53:46.671Z,18.21
2023-04-18T12:56:28.151Z,18.44
2023-04-18T12:59:16.847Z,18.48
2023-04-18T13:01:54.359Z,18.51
2023-04-18T13:04:30.929Z,18.59
2023-04-18T13:07:03.444Z,18.66
2023-04-18T13:09:37.769Z,18.70
2023-04-18T13:12:15.156Z,18.71
2023-04-18T13:14:48.797Z,18.68
2023-04-18T13:17:24.224Z,18.56
2023-04-18T13:19:58.381Z,18.66
2023-04-18T13:22:46.089Z,18.53
2023-04-18T13:25:17.925Z,18.54
2023-04-18T13:27:53.893Z,18.51
2023-04-18T13:30:40.515Z,18.45
2023-04-18T13:33:25.315Z,18.41
2023-04-18T13:35:57.826Z,18.27
2023-04-18T13:38:34.189Z,18.24
2023-04-18T13:41:12.777Z,18.26
2023-04-18T13:43:47.491Z,18.23
2023-04-18T13:46:29.823Z,18.30
2023-04-18T13:49:09.835Z,18.38
2023-04-18T13:51:45.734Z,18.44
2023-04-18T13:54:31.366Z,18.39
2023-04-18T13:57:05.415Z,18.31
2023-04-18T13:59:46.514Z,18.10
2023-04-18T14:02:31.516Z,18.04
2023-04-18T14:05:23.006Z,17.85
2023-04-18T14:08:02.273Z,17.75
2023-04-18T14:10:33.775Z,17.73
2023-04-18T14:13:13.567Z,17.70
2023-04-18T14:15:50.736Z,17.50
2023-04-18T14:18:27.628Z,17.41
2023-04-18T14:21:08.554Z,17.42
2023-04-18T14:23:43.520Z,17.15
2023-04-18T14:26:19.011Z,17.07
2023-04-18T14:29:05.252Z,16.84
2023-04-18T14:31:49.306Z,17.00
2023-04-18T14:34:29.029Z,17.08
2023-04-18T14:37:04.046Z,17.18
2023-04-18T14:39:49.483Z,17.11
2023-04-18T14:42:24.152Z,17.04
2023-04-18T14:44:58.453Z,16.98
2023-04-18T14:47:36.152Z,16.96
2023-04-18T14:50:12.469Z,16.77
2023-04-18T14:52:47.070Z,16.68
2023-04-18T14:55:20.209Z,16.67
2023-04-18T14:57:56.021Z,16.44
2023-04-18T15:00:28.467Z,16.64
2023-04-18T15:03:07.693Z,16.59
2023-04-18T15:05:49.967Z,16.65
2023-04-18T15:08:33.075Z,16.68
2023-04-18T15:11:09.708Z,16.73
2023-04-18T15:13:48.012Z,16.65
2023-04-18T15:16:20.730Z,16.71
2023-04-18T15:19:00.858Z,16.75
2023-04-18T15:21:39.591Z,16.81
2023-04-18T15:24:12.666Z,16.79
2023-04-18T15:26:45.562Z,16.81
2023-04-18T15:29:19.839Z,16.80
2023-04-18T15:31:52.792Z,16.72
2023-04-18T15:34:28.073Z,16.71
2023-04-18T15:37:07.318Z,16.71
2023-04-18T15:39:41.056Z,16.63
2023-04-18T15:42:18.503Z,16.66
2023-04-18T15:44:52.994Z,16.64
2023-04-18T15:47:27.998Z,16.60
2023-04-18T15:50:08.643Z,16.61
2023-04-18T15:52:44.780Z,16.50
2023-04-18T15:55:20.127Z,16.51
2023-04-18T15:57:55.182Z,16.47
2023-04-18T16:00:34.696Z,16.39
2023-04-18T16:03:10.185Z,16.37
2023-04-18T16:05:50.218Z,16.38
2023-04-18T16:08:26.987Z,16.37
2023-04-18T16:10:58.189Z,16.17
2023-04-18T16:13:31.616Z,16.17
2023-04-18T16:16:06.942Z,16.18
2023-04-18T16:18:44.159Z,16.20
2023-04-18T16:21:23.491Z,16.10
2023-04-18T16:24:00.563Z,16.11
2023-04-18T16:26:38.494Z,16.03
2023-04-18T16:29:15.641Z,16.16
2023-04-18T16:31:49.424Z,16.16
2023-04-18T16:34:23.021Z,16.14
2023-04-18T16:36:58.986Z,16.09
2023-04-18T16:39:34.073Z,16.01
2023-04-18T16:42:15.376Z,15.87
2023-04-18T16:44:54.101Z,15.98
2023-04-18T16:47:28.828Z,16.00
2023-04-18T16:50:17.699Z,15.92
2023-04-18T16:52:55.168Z,15.88
2023-04-18T16:55:27.339Z,15.75
2023-04-18T16:58:09.418Z,15.78
2023-04-18T17:00:46.377Z,15.69
2023-04-18T17:03:18.507Z,15.69
2023-04-18T17:05:57.103Z,15.64
2023-04-18T17:08:36.791Z,15.60
2023-04-18T17:11:13.646Z,15.70
2023-04-18T17:13:55.666Z,15.65
2023-04-18T17:16:30.006Z,15.53
2023-04-18T17:19:10.114Z,15.48
2023-04-18T17:21:48.107Z,15.44
2023-04-18T17:24:31.301Z,15.31
2023-04-18T17:27:06.819Z,15.26
2023-04-18T17:29:45.936Z,15.16
2023-04-18T17:32:33.231Z,15.06
2023-04-18T17:35:07.846Z,15.00
2023-04-18T17:37:50.277Z,14.99
2023-04-18T17:40:30.452Z,14.88
2023-04-18T17:43:19.977Z,14.92
2023-04-18T17:45:58.085Z,14.86
2023-04-18T17:48:33.725Z,14.65
2023-04-18T17:51:07.209Z,14.40
2023-04-18T17:53:51.571Z,14.18
2023-04-18T17:56:28.174Z,13.90
2023-04-18T17:58:59.037Z,14.03
2023-04-18T18:01:38.047Z,13.94
2023-04-18T18:04:13.457Z,13.77
2023-04-18T18:07:00.524Z,14.02
2023-04-18T18:09:41.757Z,13.97
2023-04-18T18:12:25.028Z,14.04
2023-04-18T18:15:00.530Z,14.04
2023-04-18T18:17:36.004Z,13.96
2023-04-18T18:20:18.283Z,13.99
2023-04-18T18:22:53.158Z,14.16
2023-04-18T18:25:33.752Z,14.10
2023-04-18T18:28:17.314Z,14.07
2023-04-18T18:30:53.277Z,14.15
2023-04-18T18:33:32.368Z,14.23
2023-04-18T18:36:10.880Z,14.22
2023-04-18T18:38:45.544Z,14.20
2023-04-18T18:41:18.812Z,14.03
2023-04-18T18:44:08.755Z,14.11
2023-04-18T18:46:43.379Z,14.04
2023-04-18T18:49:20.511Z,14.08
2023-04-18T18:52:07.377Z,14.12
2023-04-18T18:54:45.290Z,14.29
2023-04-18T18:57:30.093Z,14.24
2023-04-18T19:00:05.893Z,14.03
2023-04-18T19:02:38.979Z,14.13
2023-04-18T19:05:18.429Z,14.21
2023-04-18T19:08:00.172Z,14.21
2023-04-18T19:10:41.231Z,14.07
2023-04-18T19:13:18.183Z,14.13
2023-04-18T19:15:57.445Z,14.07
2023-04-18T19:18:33.057Z,14.14
2023-04-18T19:21:10.302Z,14.08
2023-04-18T19:23:49.113Z,14.10
2023-04-18T19:26:25.895Z,14.10
2023-04-18T19:29:01.726Z,14.08
2023-04-18T19:31:45.546Z,14.13
2023-04-18T19:34:26.989Z,14.09
2023-04-18T19:37:03.477Z,14.13
2023-04-18T19:39:36.553Z,14.08
2023-04-18T19:42:15.681Z,13.85
2023-04-18T19:45:00.607Z,13.85
2023-04-18T19:47:38.810Z,14.03
2023-04-18T19:50:33.897Z,14.04
2023-04-18T19:53:14.088Z,13.98
2023-04-18T19:55:51.873Z,14.01
2023-04-18T19:58:47.039Z,13.89
2023-04-18T20:01:25.739Z,13.98
2023-04-18T20:04:04.469Z,14.03
2023-04-18T20:06:45.080Z,13.90
2023-04-18T20:09:20.422Z,14.08
2023-04-18T20:11:52.108Z,14.04
2023-04-18T20:14:26.249Z,14.03
2023-04-18T20:17:08.564Z,13.98
2023-04-18T20:19:49.320Z,13.90
2023-04-18T20:22:30.484Z,14.02
2023-04-18T20:25:07.331Z,13.95
2023-04-18T20:27:41.471Z,13.93
2023-04-18T20:30:22.531Z,13.94
2023-04-18T20:33:08.029Z,13.96
2023-04-18T20:35:51.509Z,14.00
2023-04-18T20:38:30.001Z,14.08
2023-04-18T20:41:06.750Z,14.13
2023-04-18T20:43:37.550Z,14.16
2023-04-18T20:46:25.223Z,14.19
2023-04-18T20:48:59.672Z,14.21
2023-04-18T20:51:46.732Z,14.21
2023-04-18T20:54:25.481Z,14.20
2023-04-18T20:57:05.304Z,14.18
2023-04-18T20:59:38.716Z,14.17
2023-04-18T21:02:15.760Z,14.24
2023-04-18T21:04:54.357Z,14.24
2023-04-18T21:07:36.109Z,14.25
2023-04-18T21:10:28.072Z,14.25
2023-04-18T21:13:10.573Z,14.26
2023-04-18T21:15:51.192Z,14.25
2023-04-18T21:18:33.340Z,14.25
2023-04-18T21:21:10.690Z,14.21
2023-04-18T21:23:50.603Z,14.21
2023-04-18T21:26:27.073Z,14.16
2023-04-18T21:29:06.378Z,14.15
2023-04-18T21:31:43.814Z,14.13
2023-04-18T21:34:25.612Z,14.06
2023-04-18T21:37:04.653Z,14.05
2023-04-18T21:39:51.813Z,14.03
2023-04-18T21:42:29.506Z,14.00
2023-04-18T21:45:04.069Z,13.98
2023-04-18T21:47:36.886Z,13.89
2023-04-18T21:50:16.724Z,13.65
2023-04-18T21:52:56.870Z,13.88
2023-04-18T21:55:34.741Z,13.89
2023-04-18T21:58:10.048Z,13.85
2023-04-18T22:00:49.735Z,13.78
2023-04-18T22:03:25.866Z,13.72
2023-04-18T22:06:01.961Z,13.63
2023-04-18T22:08:43.444Z,13.53
2023-04-18T22:11:24.288Z,13.47
2023-04-18T22:14:04.636Z,13.41
2023-04-18T22:16:45.513Z,13.42
2023-04-18T22:19:29.369Z,13.42
2023-04-18T22:22:04.358Z,13.36
2023-04-18T22:24:46.809Z,13.24
2023-04-18T22:27:31.078Z,13.16
2023-04-18T22:30:07.192Z,13.14
2023-04-18T22:32:49.319Z,13.15
2023-04-18T22:35:24.142Z,13.12
2023-04-18T22:38:11.981Z,13.07
2023-04-18T22:40:50.064Z,13.06
2023-04-18T22:43:29.229Z,13.01
2023-04-18T22:46:09.059Z,13.04
2023-04-18T22:48:48.067Z,12.93
2023-04-18T22:51:22.372Z,12.97
2023-04-18T22:54:00.682Z,12.97
2023-04-18T22:56:39.428Z,12.96
2023-04-18T22:59:20.526Z,12.88
2023-04-18T23:01:54.933Z,12.96
2023-04-18T23:04:32.548Z,12.91
2023-04-18T23:07:07.124Z,12.96
2023-04-18T23:09:45.307Z,12.95
2023-04-18T23:12:32.794Z,12.77
2023-04-18T23:15:18.393Z,12.83
2023-04-18T23:17:59.671Z,12.81
2023-04-18T23:20:47.169Z,12.82
2023-04-18T23:23:23.085Z,12.76
2023-04-18T23:25:59.461Z,12.69
2023-04-18T23:28:31.308Z,12.64
2023-04-18T23:31:12.893Z,12.58
2023-04-18T23:33:58.861Z,12.52
2023-04-18T23:36:40.537Z,12.43
2023-04-18T23:39:16.957Z,12.43
2023-04-18T23:41:50.015Z,12.35
2023-04-18T23:44:24.057Z,12.32
2023-04-18T23:46:58.335Z,12.25
2023-04-18T23:49:33.456Z,12.13
2023-04-18T23:52:08.285Z,12.10
2023-04-18T23:54:45.710Z,11.91
2023-04-18T23:57:25.441Z,12.03
